sensor_id;sensor_type;location;lat;lon;timestamp;P1;durP1;ratioP1;P2;durP2;ratioP2
39032;SDS011;24794;51.982;5.878;2023-12-07T00:00:28;11.65;;;7.32;;
39032;SDS011;24794;51.982;5.878;2023-12-07T00:01:29;10.55;;;7.47;;
39032;SDS011;24794;51.982;5.878;2023-12-07T00:02:29;11.98;;;7.57;;
39032;SDS011;24794;51.982;5.878;2023-12-07T00:03:30;10.90;;;7.20;;
39032;SDS011;24794;51.982;5.878;2023-12-07T00:04:31;9.88;;;7.00;;
39032;SDS011;24794;51.982;5.878;2023-12-07T00:05:31;10.55;;;6.90;;
39032;SDS011;24794;51.982;5.878;2023-12-07T00:06:32;11.93;;;6.53;;
39032;SDS011;24794;51.982;5.878;2023-12-07T00:07:33;9.73;;;6.93;;
39032;SDS011;24794;51.982;5.878;2023-12-07T00:08:33;12.63;;;8.10;;
39032;SDS011;24794;51.982;5.878;2023-12-07T00:09:34;11.63;;;7.75;;
39032;SDS011;24794;51.982;5.878;2023-12-07T00:10:35;10.93;;;7.93;;
39032;SDS011;24794;51.982;5.878;2023-12-07T00:11:35;13.40;;;8.00;;
39032;SDS011;24794;51.982;5.878;2023-12-07T00:12:36;11.40;;;8.07;;
39032;SDS011;24794;51.982;5.878;2023-12-07T00:13:37;10.75;;;7.78;;
39032;SDS011;24794;51.982;5.878;2023-12-07T00:14:38;10.18;;;7.40;;
39032;SDS011;24794;51.982;5.878;2023-12-07T00:15:38;11.82;;;7.60;;
39032;SDS011;24794;51.982;5.878;2023-12-07T00:16:39;9.63;;;7.13;;
39032;SDS011;24794;51.982;5.878;2023-12-07T00:17:39;10.88;;;7.25;;
39032;SDS011;24794;51.982;5.878;2023-12-07T00:18:40;10.68;;;7.05;;
39032;SDS011;24794;51.982;5.878;2023-12-07T00:19:40;9.63;;;6.70;;
39032;SDS011;24794;51.982;5.878;2023-12-07T00:20:41;10.02;;;6.63;;
39032;SDS011;24794;51.982;5.878;2023-12-07T00:21:41;11.60;;;6.72;;
39032;SDS011;24794;51.982;5.878;2023-12-07T00:22:42;11.27;;;7.30;;
39032;SDS011;24794;51.982;5.878;2023-12-07T00:23:42;10.07;;;6.25;;
39032;SDS011;24794;51.982;5.878;2023-12-07T00:24:43;11.88;;;7.10;;
39032;SDS011;24794;51.982;5.878;2023-12-07T00:25:43;10.43;;;7.15;;
39032;SDS011;24794;51.982;5.878;2023-12-07T00:26:45;9.52;;;6.45;;
39032;SDS011;24794;51.982;5.878;2023-12-07T00:27:46;11.23;;;6.97;;
39032;SDS011;24794;51.982;5.878;2023-12-07T00:28:46;9.48;;;6.63;;
39032;SDS011;24794;51.982;5.878;2023-12-07T00:29:47;10.00;;;6.60;;
39032;SDS011;24794;51.982;5.878;2023-12-07T00:30:47;12.80;;;6.82;;
39032;SDS011;24794;51.982;5.878;2023-12-07T00:31:48;10.05;;;6.63;;
39032;SDS011;24794;51.982;5.878;2023-12-07T00:32:48;9.70;;;6.40;;
39032;SDS011;24794;51.982;5.878;2023-12-07T00:33:49;9.20;;;6.13;;
39032;SDS011;24794;51.982;5.878;2023-12-07T00:34:50;10.45;;;6.78;;
39032;SDS011;24794;51.982;5.878;2023-12-07T00:35:51;8.43;;;5.80;;
39032;SDS011;24794;51.982;5.878;2023-12-07T00:36:52;8.25;;;5.93;;
39032;SDS011;24794;51.982;5.878;2023-12-07T00:37:52;8.55;;;6.20;;
39032;SDS011;24794;51.982;5.878;2023-12-07T00:38:53;8.70;;;5.95;;
39032;SDS011;24794;51.982;5.878;2023-12-07T00:39:53;8.77;;;6.28;;
39032;SDS011;24794;51.982;5.878;2023-12-07T00:40:54;10.63;;;6.50;;
39032;SDS011;24794;51.982;5.878;2023-12-07T00:41:54;8.77;;;6.25;;
39032;SDS011;24794;51.982;5.878;2023-12-07T00:42:55;10.43;;;6.97;;
39032;SDS011;24794;51.982;5.878;2023-12-07T00:43:55;10.70;;;7.30;;
39032;SDS011;24794;51.982;5.878;2023-12-07T00:44:56;10.25;;;7.20;;
39032;SDS011;24794;51.982;5.878;2023-12-07T00:45:56;12.57;;;7.22;;
39032;SDS011;24794;51.982;5.878;2023-12-07T00:46:57;10.55;;;7.18;;
39032;SDS011;24794;51.982;5.878;2023-12-07T00:47:58;10.80;;;6.68;;
39032;SDS011;24794;51.982;5.878;2023-12-07T00:48:59;10.05;;;6.55;;
39032;SDS011;24794;51.982;5.878;2023-12-07T00:49:59;10.95;;;7.18;;
39032;SDS011;24794;51.982;5.878;2023-12-07T00:51:00;10.25;;;7.10;;
39032;SDS011;24794;51.982;5.878;2023-12-07T00:52:00;10.77;;;7.45;;
39032;SDS011;24794;51.982;5.878;2023-12-07T00:53:01;11.18;;;7.40;;
39032;SDS011;24794;51.982;5.878;2023-12-07T00:54:01;10.77;;;7.00;;
39032;SDS011;24794;51.982;5.878;2023-12-07T00:55:02;9.43;;;6.47;;
39032;SDS011;24794;51.982;5.878;2023-12-07T00:56:03;8.48;;;6.57;;
39032;SDS011;24794;51.982;5.878;2023-12-07T00:57:05;8.85;;;5.95;;
39032;SDS011;24794;51.982;5.878;2023-12-07T00:58:06;9.77;;;6.38;;
39032;SDS011;24794;51.982;5.878;2023-12-07T00:59:06;10.43;;;7.65;;
39032;SDS011;24794;51.982;5.878;2023-12-07T01:00:07;9.48;;;6.40;;
39032;SDS011;24794;51.982;5.878;2023-12-07T01:01:08;11.25;;;6.45;;
39032;SDS011;24794;51.982;5.878;2023-12-07T01:02:08;10.88;;;6.40;;
39032;SDS011;24794;51.982;5.878;2023-12-07T01:03:09;10.93;;;6.60;;
39032;SDS011;24794;51.982;5.878;2023-12-07T01:04:10;8.48;;;6.07;;
39032;SDS011;24794;51.982;5.878;2023-12-07T01:05:11;9.57;;;6.35;;
39032;SDS011;24794;51.982;5.878;2023-12-07T01:06:11;9.93;;;6.85;;
39032;SDS011;24794;51.982;5.878;2023-12-07T01:07:12;11.80;;;6.80;;
39032;SDS011;24794;51.982;5.878;2023-12-07T01:08:12;11.02;;;7.20;;
39032;SDS011;24794;51.982;5.878;2023-12-07T01:09:13;8.98;;;6.38;;
39032;SDS011;24794;51.982;5.878;2023-12-07T01:10:13;9.48;;;6.47;;
39032;SDS011;24794;51.982;5.878;2023-12-07T01:11:14;8.75;;;6.40;;
39032;SDS011;24794;51.982;5.878;2023-12-07T01:12:14;10.48;;;6.03;;
39032;SDS011;24794;51.982;5.878;2023-12-07T01:13:15;10.40;;;7.53;;
39032;SDS011;24794;51.982;5.878;2023-12-07T01:14:16;10.35;;;7.80;;
39032;SDS011;24794;51.982;5.878;2023-12-07T01:15:16;12.32;;;7.13;;
39032;SDS011;24794;51.982;5.878;2023-12-07T01:16:17;9.52;;;6.88;;
39032;SDS011;24794;51.982;5.878;2023-12-07T01:17:17;12.25;;;7.20;;
39032;SDS011;24794;51.982;5.878;2023-12-07T01:18:18;7.88;;;5.95;;
39032;SDS011;24794;51.982;5.878;2023-12-07T01:19:18;8.00;;;5.65;;
39032;SDS011;24794;51.982;5.878;2023-12-07T01:20:19;10.95;;;6.45;;
39032;SDS011;24794;51.982;5.878;2023-12-07T01:21:20;9.38;;;6.53;;
39032;SDS011;24794;51.982;5.878;2023-12-07T01:22:20;9.35;;;6.43;;
39032;SDS011;24794;51.982;5.878;2023-12-07T01:23:21;11.20;;;7.38;;
39032;SDS011;24794;51.982;5.878;2023-12-07T01:24:21;17.30;;;7.40;;
39032;SDS011;24794;51.982;5.878;2023-12-07T01:25:22;10.88;;;6.85;;
39032;SDS011;24794;51.982;5.878;2023-12-07T01:26:24;12.00;;;6.78;;
39032;SDS011;24794;51.982;5.878;2023-12-07T01:27:24;8.93;;;6.18;;
39032;SDS011;24794;51.982;5.878;2023-12-07T01:28:25;8.07;;;6.15;;
39032;SDS011;24794;51.982;5.878;2023-12-07T01:29:25;8.88;;;6.15;;
39032;SDS011;24794;51.982;5.878;2023-12-07T01:30:26;8.45;;;5.93;;
39032;SDS011;24794;51.982;5.878;2023-12-07T01:31:26;8.05;;;6.07;;
39032;SDS011;24794;51.982;5.878;2023-12-07T01:32:27;9.25;;;6.70;;
39032;SDS011;24794;51.982;5.878;2023-12-07T01:33:27;7.80;;;6.22;;
39032;SDS011;24794;51.982;5.878;2023-12-07T01:34:28;8.90;;;6.25;;
39032;SDS011;24794;51.982;5.878;2023-12-07T01:35:28;8.68;;;6.18;;
39032;SDS011;24794;51.982;5.878;2023-12-07T01:36:29;7.45;;;5.70;;
39032;SDS011;24794;51.982;5.878;2023-12-07T01:37:29;8.05;;;4.93;;
39032;SDS011;24794;51.982;5.878;2023-12-07T01:38:30;8.00;;;5.68;;
39032;SDS011;24794;51.982;5.878;2023-12-07T01:39:31;8.40;;;5.65;;
39032;SDS011;24794;51.982;5.878;2023-12-07T01:40:31;8.93;;;6.22;;
39032;SDS011;24794;51.982;5.878;2023-12-07T01:41:32;8.05;;;5.32;;
39032;SDS011;24794;51.982;5.878;2023-12-07T01:42:33;7.28;;;5.47;;
39032;SDS011;24794;51.982;5.878;2023-12-07T01:43:33;8.35;;;5.50;;
39032;SDS011;24794;51.982;5.878;2023-12-07T01:44:34;7.47;;;5.75;;
39032;SDS011;24794;51.982;5.878;2023-12-07T01:45:35;9.15;;;5.72;;
39032;SDS011;24794;51.982;5.878;2023-12-07T01:46:35;8.15;;;5.50;;
39032;SDS011;24794;51.982;5.878;2023-12-07T01:47:36;8.45;;;5.28;;
39032;SDS011;24794;51.982;5.878;2023-12-07T01:48:38;7.88;;;5.50;;
39032;SDS011;24794;51.982;5.878;2023-12-07T01:49:39;8.40;;;5.43;;
39032;SDS011;24794;51.982;5.878;2023-12-07T01:50:40;10.50;;;6.03;;
39032;SDS011;24794;51.982;5.878;2023-12-07T01:51:41;9.38;;;6.88;;
39032;SDS011;24794;51.982;5.878;2023-12-07T01:52:43;11.52;;;6.07;;
39032;SDS011;24794;51.982;5.878;2023-12-07T01:53:47;8.60;;;5.90;;
39032;SDS011;24794;51.982;5.878;2023-12-07T01:54:48;7.90;;;5.93;;
39032;SDS011;24794;51.982;5.878;2023-12-07T01:55:48;8.45;;;5.90;;
39032;SDS011;24794;51.982;5.878;2023-12-07T01:56:50;11.95;;;5.72;;
39032;SDS011;24794;51.982;5.878;2023-12-07T01:57:52;10.25;;;6.43;;
39032;SDS011;24794;51.982;5.878;2023-12-07T01:58:52;8.77;;;7.03;;
39032;SDS011;24794;51.982;5.878;2023-12-07T01:59:53;10.52;;;6.82;;
39032;SDS011;24794;51.982;5.878;2023-12-07T02:00:54;10.10;;;6.68;;
39032;SDS011;24794;51.982;5.878;2023-12-07T02:01:55;9.73;;;5.65;;
39032;SDS011;24794;51.982;5.878;2023-12-07T02:02:56;11.82;;;5.65;;
39032;SDS011;24794;51.982;5.878;2023-12-07T02:03:56;9.55;;;6.38;;
39032;SDS011;24794;51.982;5.878;2023-12-07T02:04:57;8.55;;;6.22;;
39032;SDS011;24794;51.982;5.878;2023-12-07T02:05:57;8.70;;;5.70;;
39032;SDS011;24794;51.982;5.878;2023-12-07T02:06:58;11.80;;;6.93;;
39032;SDS011;24794;51.982;5.878;2023-12-07T02:08:01;12.52;;;7.35;;
39032;SDS011;24794;51.982;5.878;2023-12-07T02:09:02;16.30;;;8.02;;
39032;SDS011;24794;51.982;5.878;2023-12-07T02:10:03;15.48;;;8.80;;
39032;SDS011;24794;51.982;5.878;2023-12-07T02:11:04;12.63;;;8.60;;
39032;SDS011;24794;51.982;5.878;2023-12-07T02:12:05;13.25;;;8.18;;
39032;SDS011;24794;51.982;5.878;2023-12-07T02:13:05;10.40;;;6.57;;
39032;SDS011;24794;51.982;5.878;2023-12-07T02:14:07;12.38;;;6.70;;
39032;SDS011;24794;51.982;5.878;2023-12-07T02:15:07;10.10;;;6.53;;
39032;SDS011;24794;51.982;5.878;2023-12-07T02:16:13;8.80;;;6.50;;
39032;SDS011;24794;51.982;5.878;2023-12-07T02:17:27;10.35;;;6.50;;
39032;SDS011;24794;51.982;5.878;2023-12-07T02:18:38;10.75;;;6.35;;
39032;SDS011;24794;51.982;5.878;2023-12-07T02:21:16;12.27;;;7.63;;
39032;SDS011;24794;51.982;5.878;2023-12-07T02:22:29;15.45;;;8.30;;
39032;SDS011;24794;51.982;5.878;2023-12-07T02:23:34;13.73;;;7.50;;
39032;SDS011;24794;51.982;5.878;2023-12-07T02:24:37;15.13;;;7.35;;
39032;SDS011;24794;51.982;5.878;2023-12-07T02:26:53;12.27;;;7.18;;
39032;SDS011;24794;51.982;5.878;2023-12-07T02:27:53;16.20;;;7.47;;
39032;SDS011;24794;51.982;5.878;2023-12-07T02:28:54;16.77;;;7.00;;
39032;SDS011;24794;51.982;5.878;2023-12-07T02:29:54;17.08;;;7.68;;
39032;SDS011;24794;51.982;5.878;2023-12-07T02:30:55;21.95;;;8.07;;
39032;SDS011;24794;51.982;5.878;2023-12-07T02:31:55;28.80;;;8.25;;
39032;SDS011;24794;51.982;5.878;2023-12-07T02:32:56;32.05;;;9.18;;
39032;SDS011;24794;51.982;5.878;2023-12-07T02:33:56;30.17;;;9.00;;
39032;SDS011;24794;51.982;5.878;2023-12-07T02:34:57;21.83;;;8.80;;
39032;SDS011;24794;51.982;5.878;2023-12-07T02:35:58;18.15;;;8.02;;
39032;SDS011;24794;51.982;5.878;2023-12-07T02:36:59;31.85;;;8.70;;
39032;SDS011;24794;51.982;5.878;2023-12-07T02:38:01;18.42;;;8.50;;
39032;SDS011;24794;51.982;5.878;2023-12-07T02:39:03;26.80;;;8.60;;
39032;SDS011;24794;51.982;5.878;2023-12-07T02:40:05;20.70;;;8.25;;
39032;SDS011;24794;51.982;5.878;2023-12-07T02:41:10;18.30;;;7.75;;
39032;SDS011;24794;51.982;5.878;2023-12-07T02:42:11;16.50;;;7.20;;
39032;SDS011;24794;51.982;5.878;2023-12-07T02:43:14;23.88;;;6.97;;
39032;SDS011;24794;51.982;5.878;2023-12-07T02:44:15;17.90;;;6.00;;
39032;SDS011;24794;51.982;5.878;2023-12-07T02:45:18;19.02;;;6.80;;
39032;SDS011;24794;51.982;5.878;2023-12-07T02:46:18;12.57;;;5.85;;
39032;SDS011;24794;51.982;5.878;2023-12-07T02:47:19;15.00;;;5.63;;
39032;SDS011;24794;51.982;5.878;2023-12-07T02:48:20;20.88;;;5.82;;
39032;SDS011;24794;51.982;5.878;2023-12-07T02:49:21;16.05;;;6.30;;
39032;SDS011;24794;51.982;5.878;2023-12-07T02:50:21;14.18;;;6.50;;
39032;SDS011;24794;51.982;5.878;2023-12-07T02:51:22;18.65;;;6.40;;
39032;SDS011;24794;51.982;5.878;2023-12-07T02:52:22;17.33;;;5.40;;
39032;SDS011;24794;51.982;5.878;2023-12-07T02:53:23;13.43;;;5.70;;
39032;SDS011;24794;51.982;5.878;2023-12-07T02:54:24;13.32;;;5.68;;
39032;SDS011;24794;51.982;5.878;2023-12-07T02:55:24;11.73;;;5.22;;
39032;SDS011;24794;51.982;5.878;2023-12-07T02:56:25;16.67;;;5.60;;
39032;SDS011;24794;51.982;5.878;2023-12-07T02:57:25;15.13;;;5.55;;
39032;SDS011;24794;51.982;5.878;2023-12-07T02:58:26;13.68;;;5.45;;
39032;SDS011;24794;51.982;5.878;2023-12-07T02:59:26;15.23;;;5.85;;
39032;SDS011;24794;51.982;5.878;2023-12-07T03:00:27;15.52;;;6.60;;
39032;SDS011;24794;51.982;5.878;2023-12-07T03:01:27;27.80;;;6.28;;
39032;SDS011;24794;51.982;5.878;2023-12-07T03:02:28;11.98;;;6.18;;
39032;SDS011;24794;51.982;5.878;2023-12-07T03:03:28;16.67;;;6.35;;
39032;SDS011;24794;51.982;5.878;2023-12-07T03:04:29;14.38;;;6.25;;
39032;SDS011;24794;51.982;5.878;2023-12-07T03:05:29;14.57;;;4.97;;
39032;SDS011;24794;51.982;5.878;2023-12-07T03:06:30;9.77;;;5.32;;
39032;SDS011;24794;51.982;5.878;2023-12-07T03:07:30;9.18;;;5.53;;
39032;SDS011;24794;51.982;5.878;2023-12-07T03:08:31;13.65;;;5.40;;
39032;SDS011;24794;51.982;5.878;2023-12-07T03:09:31;34.47;;;6.10;;
39032;SDS011;24794;51.982;5.878;2023-12-07T03:10:32;17.00;;;5.43;;
39032;SDS011;24794;51.982;5.878;2023-12-07T03:11:32;13.40;;;5.22;;
39032;SDS011;24794;51.982;5.878;2023-12-07T03:12:33;9.82;;;5.30;;
39032;SDS011;24794;51.982;5.878;2023-12-07T03:13:34;13.02;;;5.45;;
39032;SDS011;24794;51.982;5.878;2023-12-07T03:14:34;16.58;;;5.15;;
39032;SDS011;24794;51.982;5.878;2023-12-07T03:15:35;8.65;;;4.72;;
39032;SDS011;24794;51.982;5.878;2023-12-07T03:16:35;8.52;;;4.72;;
39032;SDS011;24794;51.982;5.878;2023-12-07T03:17:36;16.35;;;5.30;;
39032;SDS011;24794;51.982;5.878;2023-12-07T03:18:37;9.55;;;5.32;;
39032;SDS011;24794;51.982;5.878;2023-12-07T03:19:37;9.85;;;5.45;;
39032;SDS011;24794;51.982;5.878;2023-12-07T03:20:38;16.67;;;5.32;;
39032;SDS011;24794;51.982;5.878;2023-12-07T03:21:39;9.32;;;5.88;;
39032;SDS011;24794;51.982;5.878;2023-12-07T03:22:40;9.65;;;5.80;;
39032;SDS011;24794;51.982;5.878;2023-12-07T03:23:41;10.50;;;6.20;;
39032;SDS011;24794;51.982;5.878;2023-12-07T03:24:45;10.82;;;5.65;;
39032;SDS011;24794;51.982;5.878;2023-12-07T03:25:47;7.82;;;5.57;;
39032;SDS011;24794;51.982;5.878;2023-12-07T03:26:48;6.80;;;5.40;;
39032;SDS011;24794;51.982;5.878;2023-12-07T03:27:48;12.80;;;5.82;;
39032;SDS011;24794;51.982;5.878;2023-12-07T03:28:49;9.07;;;5.90;;
39032;SDS011;24794;51.982;5.878;2023-12-07T03:29:49;8.43;;;6.03;;
39032;SDS011;24794;51.982;5.878;2023-12-07T03:30:51;8.82;;;5.75;;
39032;SDS011;24794;51.982;5.878;2023-12-07T03:31:51;7.32;;;5.00;;
39032;SDS011;24794;51.982;5.878;2023-12-07T03:32:52;6.90;;;5.05;;
39032;SDS011;24794;51.982;5.878;2023-12-07T03:33:53;7.85;;;5.47;;
39032;SDS011;24794;51.982;5.878;2023-12-07T03:34:54;8.00;;;5.55;;
39032;SDS011;24794;51.982;5.878;2023-12-07T03:35:54;6.63;;;4.75;;
39032;SDS011;24794;51.982;5.878;2023-12-07T03:36:55;8.85;;;5.55;;
39032;SDS011;24794;51.982;5.878;2023-12-07T03:37:56;7.70;;;5.47;;
39032;SDS011;24794;51.982;5.878;2023-12-07T03:38:56;8.45;;;5.88;;
39032;SDS011;24794;51.982;5.878;2023-12-07T03:39:57;9.57;;;6.28;;
39032;SDS011;24794;51.982;5.878;2023-12-07T03:40:57;7.50;;;4.95;;
39032;SDS011;24794;51.982;5.878;2023-12-07T03:41:58;7.78;;;5.00;;
39032;SDS011;24794;51.982;5.878;2023-12-07T03:42:58;7.55;;;5.50;;
39032;SDS011;24794;51.982;5.878;2023-12-07T03:43:59;8.32;;;5.53;;
39032;SDS011;24794;51.982;5.878;2023-12-07T03:44:59;10.00;;;6.20;;
39032;SDS011;24794;51.982;5.878;2023-12-07T03:46:03;9.30;;;6.43;;
39032;SDS011;24794;51.982;5.878;2023-12-07T03:47:04;7.80;;;5.53;;
39032;SDS011;24794;51.982;5.878;2023-12-07T03:48:05;8.13;;;5.70;;
39032;SDS011;24794;51.982;5.878;2023-12-07T03:49:06;7.65;;;4.85;;
39032;SDS011;24794;51.982;5.878;2023-12-07T03:50:06;7.38;;;5.20;;
39032;SDS011;24794;51.982;5.878;2023-12-07T03:51:07;8.50;;;5.47;;
39032;SDS011;24794;51.982;5.878;2023-12-07T03:52:07;8.60;;;5.90;;
39032;SDS011;24794;51.982;5.878;2023-12-07T03:53:08;7.57;;;5.38;;
39032;SDS011;24794;51.982;5.878;2023-12-07T03:54:09;8.55;;;5.63;;
39032;SDS011;24794;51.982;5.878;2023-12-07T03:55:10;7.43;;;5.50;;
39032;SDS011;24794;51.982;5.878;2023-12-07T03:56:10;8.27;;;6.15;;
39032;SDS011;24794;51.982;5.878;2023-12-07T03:57:21;8.15;;;5.88;;
39032;SDS011;24794;51.982;5.878;2023-12-07T03:58:22;9.25;;;6.13;;
39032;SDS011;24794;51.982;5.878;2023-12-07T03:59:22;8.80;;;5.90;;
39032;SDS011;24794;51.982;5.878;2023-12-07T04:00:23;7.78;;;6.22;;
39032;SDS011;24794;51.982;5.878;2023-12-07T04:01:24;8.30;;;5.40;;
39032;SDS011;24794;51.982;5.878;2023-12-07T04:02:26;8.95;;;5.47;;
39032;SDS011;24794;51.982;5.878;2023-12-07T04:03:26;8.20;;;5.82;;
39032;SDS011;24794;51.982;5.878;2023-12-07T04:04:27;8.18;;;5.70;;
39032;SDS011;24794;51.982;5.878;2023-12-07T04:05:27;10.25;;;6.45;;
39032;SDS011;24794;51.982;5.878;2023-12-07T04:06:28;9.90;;;6.47;;
39032;SDS011;24794;51.982;5.878;2023-12-07T04:07:29;8.40;;;6.40;;
39032;SDS011;24794;51.982;5.878;2023-12-07T04:08:29;9.27;;;6.30;;
39032;SDS011;24794;51.982;5.878;2023-12-07T04:09:30;8.20;;;5.93;;
39032;SDS011;24794;51.982;5.878;2023-12-07T04:10:31;10.45;;;6.75;;
39032;SDS011;24794;51.982;5.878;2023-12-07T04:11:31;9.68;;;6.25;;
39032;SDS011;24794;51.982;5.878;2023-12-07T04:12:32;8.40;;;5.80;;
39032;SDS011;24794;51.982;5.878;2023-12-07T04:13:32;10.40;;;6.07;;
39032;SDS011;24794;51.982;5.878;2023-12-07T04:14:33;10.80;;;6.53;;
39032;SDS011;24794;51.982;5.878;2023-12-07T04:15:34;8.90;;;6.05;;
39032;SDS011;24794;51.982;5.878;2023-12-07T04:16:34;8.20;;;6.10;;
39032;SDS011;24794;51.982;5.878;2023-12-07T04:17:35;9.10;;;5.65;;
39032;SDS011;24794;51.982;5.878;2023-12-07T04:18:35;7.63;;;5.75;;
39032;SDS011;24794;51.982;5.878;2023-12-07T04:19:36;9.48;;;6.20;;
39032;SDS011;24794;51.982;5.878;2023-12-07T04:20:37;8.40;;;5.72;;
39032;SDS011;24794;51.982;5.878;2023-12-07T04:21:37;8.27;;;5.93;;
39032;SDS011;24794;51.982;5.878;2023-12-07T04:22:38;8.15;;;6.00;;
39032;SDS011;24794;51.982;5.878;2023-12-07T04:23:39;8.60;;;6.47;;
39032;SDS011;24794;51.982;5.878;2023-12-07T04:24:39;11.25;;;7.57;;
39032;SDS011;24794;51.982;5.878;2023-12-07T04:25:40;11.35;;;6.93;;
39032;SDS011;24794;51.982;5.878;2023-12-07T04:26:40;12.35;;;8.00;;
39032;SDS011;24794;51.982;5.878;2023-12-07T04:27:41;13.50;;;8.02;;
39032;SDS011;24794;51.982;5.878;2023-12-07T04:28:42;11.93;;;7.97;;
39032;SDS011;24794;51.982;5.878;2023-12-07T04:29:42;10.98;;;7.47;;
39032;SDS011;24794;51.982;5.878;2023-12-07T04:30:43;10.65;;;6.70;;
39032;SDS011;24794;51.982;5.878;2023-12-07T04:31:43;11.88;;;7.28;;
39032;SDS011;24794;51.982;5.878;2023-12-07T04:32:44;11.45;;;7.38;;
39032;SDS011;24794;51.982;5.878;2023-12-07T04:33:44;11.27;;;7.07;;
39032;SDS011;24794;51.982;5.878;2023-12-07T04:34:45;10.27;;;7.30;;
39032;SDS011;24794;51.982;5.878;2023-12-07T04:35:45;11.90;;;7.88;;
39032;SDS011;24794;51.982;5.878;2023-12-07T04:36:47;13.95;;;8.65;;
39032;SDS011;24794;51.982;5.878;2023-12-07T04:37:47;20.65;;;11.48;;
39032;SDS011;24794;51.982;5.878;2023-12-07T04:38:48;22.15;;;12.68;;
39032;SDS011;24794;51.982;5.878;2023-12-07T04:39:48;23.95;;;13.77;;
39032;SDS011;24794;51.982;5.878;2023-12-07T04:40:49;23.25;;;12.88;;
39032;SDS011;24794;51.982;5.878;2023-12-07T04:41:49;36.28;;;12.38;;
39032;SDS011;24794;51.982;5.878;2023-12-07T04:42:51;22.75;;;11.25;;
39032;SDS011;24794;51.982;5.878;2023-12-07T04:43:51;27.65;;;10.95;;
39032;SDS011;24794;51.982;5.878;2023-12-07T04:44:52;50.80;;;13.50;;
39032;SDS011;24794;51.982;5.878;2023-12-07T04:45:52;32.83;;;11.35;;
39032;SDS011;24794;51.982;5.878;2023-12-07T04:46:53;28.35;;;10.82;;
39032;SDS011;24794;51.982;5.878;2023-12-07T04:47:54;42.78;;;12.45;;
39032;SDS011;24794;51.982;5.878;2023-12-07T04:48:54;28.00;;;10.88;;
39032;SDS011;24794;51.982;5.878;2023-12-07T04:49:55;42.45;;;10.77;;
39032;SDS011;24794;51.982;5.878;2023-12-07T04:50:55;51.80;;;12.60;;
39032;SDS011;24794;51.982;5.878;2023-12-07T04:51:56;133.48;;;17.13;;
39032;SDS011;24794;51.982;5.878;2023-12-07T04:52:56;41.67;;;12.32;;
39032;SDS011;24794;51.982;5.878;2023-12-07T04:53:57;29.50;;;12.00;;
39032;SDS011;24794;51.982;5.878;2023-12-07T04:54:58;20.10;;;10.38;;
39032;SDS011;24794;51.982;5.878;2023-12-07T04:55:59;29.10;;;10.43;;
39032;SDS011;24794;51.982;5.878;2023-12-07T04:56:59;62.80;;;14.23;;
39032;SDS011;24794;51.982;5.878;2023-12-07T04:58:00;40.42;;;12.70;;
39032;SDS011;24794;51.982;5.878;2023-12-07T04:59:00;77.85;;;12.90;;
39032;SDS011;24794;51.982;5.878;2023-12-07T05:00:02;26.95;;;11.45;;
39032;SDS011;24794;51.982;5.878;2023-12-07T05:01:06;62.42;;;12.15;;
39032;SDS011;24794;51.982;5.878;2023-12-07T05:02:07;48.45;;;13.60;;
39032;SDS011;24794;51.982;5.878;2023-12-07T05:03:07;60.30;;;13.57;;
39032;SDS011;24794;51.982;5.878;2023-12-07T05:04:08;28.85;;;10.73;;
39032;SDS011;24794;51.982;5.878;2023-12-07T05:05:08;22.90;;;10.15;;
39032;SDS011;24794;51.982;5.878;2023-12-07T05:06:09;21.25;;;8.75;;
39032;SDS011;24794;51.982;5.878;2023-12-07T05:07:10;18.63;;;8.52;;
39032;SDS011;24794;51.982;5.878;2023-12-07T05:08:11;35.95;;;9.60;;
39032;SDS011;24794;51.982;5.878;2023-12-07T05:09:12;102.85;;;14.98;;
39032;SDS011;24794;51.982;5.878;2023-12-07T05:10:12;42.95;;;11.90;;
39032;SDS011;24794;51.982;5.878;2023-12-07T05:11:13;35.35;;;10.98;;
39032;SDS011;24794;51.982;5.878;2023-12-07T05:12:14;49.85;;;12.35;;
39032;SDS011;24794;51.982;5.878;2023-12-07T05:13:14;40.50;;;10.85;;
39032;SDS011;24794;51.982;5.878;2023-12-07T05:14:15;87.30;;;13.77;;
39032;SDS011;24794;51.982;5.878;2023-12-07T05:15:15;28.25;;;11.77;;
39032;SDS011;24794;51.982;5.878;2023-12-07T05:16:16;25.08;;;10.43;;
39032;SDS011;24794;51.982;5.878;2023-12-07T05:17:16;16.83;;;9.80;;
39032;SDS011;24794;51.982;5.878;2023-12-07T05:18:17;24.38;;;9.00;;
39032;SDS011;24794;51.982;5.878;2023-12-07T05:19:24;14.27;;;9.15;;
39032;SDS011;24794;51.982;5.878;2023-12-07T05:20:25;16.63;;;8.65;;
39032;SDS011;24794;51.982;5.878;2023-12-07T05:21:27;39.03;;;9.50;;
39032;SDS011;24794;51.982;5.878;2023-12-07T05:22:28;29.42;;;9.98;;
39032;SDS011;24794;51.982;5.878;2023-12-07T05:23:29;16.23;;;8.65;;
39032;SDS011;24794;51.982;5.878;2023-12-07T05:24:29;15.23;;;8.32;;
39032;SDS011;24794;51.982;5.878;2023-12-07T05:25:32;24.80;;;9.13;;
39032;SDS011;24794;51.982;5.878;2023-12-07T05:26:33;79.95;;;11.32;;
39032;SDS011;24794;51.982;5.878;2023-12-07T05:27:34;47.42;;;10.30;;
39032;SDS011;24794;51.982;5.878;2023-12-07T05:28:35;59.90;;;11.98;;
39032;SDS011;24794;51.982;5.878;2023-12-07T05:29:36;26.20;;;9.02;;
39032;SDS011;24794;51.982;5.878;2023-12-07T05:30:37;55.92;;;12.50;;
39032;SDS011;24794;51.982;5.878;2023-12-07T05:31:37;53.03;;;12.23;;
39032;SDS011;24794;51.982;5.878;2023-12-07T05:32:38;63.42;;;11.98;;
39032;SDS011;24794;51.982;5.878;2023-12-07T05:33:38;26.98;;;9.80;;
39032;SDS011;24794;51.982;5.878;2023-12-07T05:34:39;28.30;;;10.00;;
39032;SDS011;24794;51.982;5.878;2023-12-07T05:35:39;16.73;;;8.38;;
39032;SDS011;24794;51.982;5.878;2023-12-07T05:36:40;22.35;;;8.40;;
39032;SDS011;24794;51.982;5.878;2023-12-07T05:37:40;12.77;;;8.07;;
39032;SDS011;24794;51.982;5.878;2023-12-07T05:38:41;69.20;;;10.63;;
39032;SDS011;24794;51.982;5.878;2023-12-07T05:39:41;30.80;;;10.40;;
39032;SDS011;24794;51.982;5.878;2023-12-07T05:40:42;32.92;;;9.70;;
39032;SDS011;24794;51.982;5.878;2023-12-07T05:41:43;72.80;;;11.50;;
39032;SDS011;24794;51.982;5.878;2023-12-07T05:42:43;73.60;;;12.45;;
39032;SDS011;24794;51.982;5.878;2023-12-07T05:43:44;67.38;;;12.05;;
39032;SDS011;24794;51.982;5.878;2023-12-07T05:44:44;83.45;;;12.38;;
39032;SDS011;24794;51.982;5.878;2023-12-07T05:45:45;21.17;;;9.52;;
39032;SDS011;24794;51.982;5.878;2023-12-07T05:46:45;93.38;;;12.25;;
39032;SDS011;24794;51.982;5.878;2023-12-07T05:47:46;191.00;;;16.52;;
39032;SDS011;24794;51.982;5.878;2023-12-07T05:48:47;162.30;;;14.80;;
39032;SDS011;24794;51.982;5.878;2023-12-07T05:49:47;97.68;;;14.02;;
39032;SDS011;24794;51.982;5.878;2023-12-07T05:50:48;89.15;;;13.40;;
39032;SDS011;24794;51.982;5.878;2023-12-07T05:51:49;108.97;;;13.05;;
39032;SDS011;24794;51.982;5.878;2023-12-07T05:52:50;52.88;;;11.32;;
39032;SDS011;24794;51.982;5.878;2023-12-07T05:53:50;51.70;;;11.05;;
39032;SDS011;24794;51.982;5.878;2023-12-07T05:54:51;26.98;;;9.75;;
39032;SDS011;24794;51.982;5.878;2023-12-07T05:55:51;21.65;;;8.52;;
39032;SDS011;24794;51.982;5.878;2023-12-07T05:56:52;15.05;;;7.93;;
39032;SDS011;24794;51.982;5.878;2023-12-07T05:57:52;25.15;;;9.57;;
39032;SDS011;24794;51.982;5.878;2023-12-07T05:58:53;42.35;;;10.80;;
39032;SDS011;24794;51.982;5.878;2023-12-07T05:59:53;51.58;;;10.93;;
39032;SDS011;24794;51.982;5.878;2023-12-07T06:00:54;57.63;;;12.02;;
39032;SDS011;24794;51.982;5.878;2023-12-07T06:01:54;17.25;;;9.55;;
39032;SDS011;24794;51.982;5.878;2023-12-07T06:02:55;18.52;;;9.48;;
39032;SDS011;24794;51.982;5.878;2023-12-07T06:03:55;16.55;;;8.93;;
39032;SDS011;24794;51.982;5.878;2023-12-07T06:04:56;15.52;;;8.80;;